Time;durP1;ratioP1;P1;durP2;ratioP2;P2;SDS_P1;SDS_P2;PMS_P1;PMS_P2;Temp;Humidity;BMP_temperature;BMP_pressure;BME280_temperature;BME280_humidity;BME280_pressure;Samples;Min_cycle;Max_cycle;Signal;HPM_P1;HPM_P2
2023/05/12 00:02:06;;;;;;;2.80;2.27;;;11.60;99.90;;;;;;5052745;28;20170;-86
2023/05/12 00:04:32;;;;;;;3.80;2.27;;;11.50;99.90;;;;;;5052791;28;20271;-86
2023/05/12 00:06:58;;;;;;;4.43;2.47;;;11.50;99.90;;;;;;5053767;28;20205;-86
2023/05/12 00:09:23;;;;;;;2.53;2.33;;;11.40;99.90;;;;;;5052289;28;20173;-87
2023/05/12 00:11:49;;;;;;;2.60;2.40;;;11.50;99.90;;;;;;5051849;28;20648;-86
2023/05/12 00:14:15;;;;;;;2.97;2.40;;;11.50;99.90;;;;;;5053394;28;20197;-86
2023/05/12 00:16:41;;;;;;;2.80;2.53;;;11.50;99.90;;;;;;5053747;28;20166;-87
2023/05/12 00:19:07;;;;;;;2.40;2.20;;;11.50;99.90;;;;;;5053744;28;20666;-86
2023/05/12 00:21:33;;;;;;;2.90;2.53;;;11.40;99.90;;;;;;5051799;28;20166;-87
2023/05/12 00:23:58;;;;;;;3.13;2.53;;;11.50;99.90;;;;;;5053246;28;20173;-86
2023/05/12 00:26:24;;;;;;;2.63;2.40;;;11.50;99.90;;;;;;5053543;28;20660;-86
2023/05/12 00:28:50;;;;;;;2.70;2.50;;;11.50;99.90;;;;;;5053168;28;20176;-86
2023/05/12 00:31:15;;;;;;;4.93;2.60;;;11.50;99.90;;;;;;5051519;28;20611;-86
2023/05/12 00:33:41;;;;;;;3.63;2.70;;;11.40;99.90;;;;;;5051708;28;20586;-86
2023/05/12 00:36:07;;;;;;;3.77;2.50;;;11.40;99.90;;;;;;5052115;28;20172;-87
2023/05/12 00:38:33;;;;;;;4.93;2.57;;;11.50;99.90;;;;;;5051764;28;20202;-86
2023/05/12 00:41:00;;;;;;;2.70;2.50;;;11.50;99.90;;;;;;5051230;28;20216;-86
2023/05/12 00:43:25;;;;;;;3.30;2.83;;;11.50;99.90;;;;;;5051534;28;20177;-87
2023/05/12 00:45:51;;;;;;;2.93;2.67;;;11.50;99.90;;;;;;5053039;28;20180;-86
2023/05/12 00:48:17;;;;;;;2.97;2.67;;;11.40;99.90;;;;;;5051734;28;20675;-86
2023/05/12 00:50:43;;;;;;;3.87;2.60;;;11.40;99.90;;;;;;5051125;28;20212;-86
2023/05/12 00:53:09;;;;;;;2.70;2.50;;;11.40;99.90;;;;;;5052822;28;20173;-86
2023/05/12 00:55:36;;;;;;;3.13;2.83;;;11.30;99.90;;;;;;5051664;28;20177;-86
2023/05/12 00:58:02;;;;;;;3.63;3.23;;;11.10;99.90;;;;;;5053209;28;20177;-87
2023/05/12 01:00:28;;;;;;;3.03;2.77;;;11.10;99.90;;;;;;5052520;28;20262;-86
2023/05/12 01:02:57;;;;;;;3.17;2.80;;;11.10;99.90;;;;;;5052787;28;20170;-86
2023/05/12 01:05:35;;;;;;;2.80;2.60;;;11.10;99.90;;;;;;5051480;28;20184;-86
2023/05/12 01:08:02;;;;;;;3.13;2.83;;;11.10;99.90;;;;;;5052830;28;20168;-87
2023/05/12 01:10:27;;;;;;;3.67;2.90;;;11.10;99.90;;;;;;5050426;28;20195;-86
2023/05/12 01:12:53;;;;;;;3.57;3.20;;;11.10;99.90;;;;;;5052484;28;20170;-86
2023/05/12 01:15:18;;;;;;;3.00;2.70;;;11.10;99.90;;;;;;5052472;28;20174;-86
2023/05/12 01:17:51;;;;;;;3.10;2.80;;;11.20;99.90;;;;;;5051098;28;20175;-86
2023/05/12 01:20:19;;;;;;;4.37;2.70;;;11.20;99.90;;;;;;5051832;28;20197;-87
2023/05/12 01:22:46;;;;;;;4.10;2.87;;;11.30;99.90;;;;;;5051168;28;20260;-86
2023/05/12 01:25:14;;;;;;;3.23;2.93;;;11.20;99.90;;;;;;5052384;28;20198;-86
2023/05/12 01:27:41;;;;;;;3.10;2.60;;;11.10;99.90;;;;;;5051268;28;20228;-86
2023/05/12 01:30:08;;;;;;;2.83;2.60;;;11.10;99.90;;;;;;5051749;28;20194;-86
2023/05/12 01:32:35;;;;;;;3.10;2.50;;;11.20;99.90;;;;;;5052228;28;20181;-86
2023/05/12 01:35:00;;;;;;;3.10;2.80;;;11.20;99.90;;;;;;5052172;28;20212;-86
2023/05/12 01:37:26;;;;;;;4.70;3.10;;;11.20;99.90;;;;;;5050266;28;20173;-86
2023/05/12 01:39:52;;;;;;;3.37;3.07;;;11.20;99.90;;;;;;5051312;28;20298;-87
2023/05/12 01:42:18;;;;;;;4.77;3.13;;;11.20;99.90;;;;;;5050769;28;20264;-86
2023/05/12 01:44:44;;;;;;;3.37;3.07;;;11.20;99.90;;;;;;5052063;28;20176;-87
2023/05/12 01:47:10;;;;;;;3.27;2.97;;;11.20;99.90;;;;;;5050711;28;20181;-87
2023/05/12 01:49:36;;;;;;;4.07;3.40;;;11.20;99.90;;;;;;5051359;28;20204;-83
2023/05/12 01:52:02;;;;;;;3.37;3.07;;;11.20;99.90;;;;;;5051755;28;20252;-86
2023/05/12 01:54:28;;;;;;;4.73;3.00;;;11.20;99.90;;;;;;5050714;28;20285;-87
2023/05/12 01:56:53;;;;;;;3.43;3.07;;;11.20;99.90;;;;;;5050984;28;20170;-86
2023/05/12 01:59:19;;;;;;;5.13;3.13;;;11.20;99.90;;;;;;5052183;28;20171;-86
2023/05/12 02:01:45;;;;;;;3.60;2.80;;;11.10;99.90;;;;;;5050184;28;20225;-86
2023/05/12 02:04:10;;;;;;;3.40;3.10;;;11.20;99.90;;;;;;5052194;28;20659;-88
2023/05/12 02:06:36;;;;;;;3.73;3.00;;;11.10;99.90;;;;;;5050565;28;20169;-86
2023/05/12 02:09:02;;;;;;;5.23;3.20;;;11.10;99.90;;;;;;5050530;28;20660;-86
2023/05/12 02:11:28;;;;;;;4.33;2.87;;;11.10;99.90;;;;;;5049996;28;20215;-86
2023/05/12 02:13:53;;;;;;;4.53;2.80;;;11.10;99.90;;;;;;5051925;28;20229;-86
2023/05/12 02:16:19;;;;;;;3.53;3.00;;;11.10;99.90;;;;;;5050567;28;20212;-86
2023/05/12 02:18:44;;;;;;;3.10;2.80;;;11.00;99.90;;;;;;5050586;28;20173;-86
2023/05/12 02:21:10;;;;;;;3.83;3.10;;;11.10;99.90;;;;;;5051062;28;20607;-86
2023/05/12 02:23:36;;;;;;;5.03;3.20;;;11.10;99.90;;;;;;5050342;28;20185;-86
2023/05/12 02:26:01;;;;;;;3.93;3.00;;;11.10;99.90;;;;;;5050601;28;20177;-86
2023/05/12 02:28:27;;;;;;;3.93;2.80;;;11.10;99.90;;;;;;5050600;28;20184;-87
2023/05/12 02:30:53;;;;;;;3.47;3.00;;;11.10;99.90;;;;;;5049528;28;20201;-86
2023/05/12 02:33:22;;;;;;;4.13;2.70;;;11.20;99.90;;;;;;5044824;28;20236;-86
2023/05/12 02:35:48;;;;;;;3.50;2.90;;;11.10;99.90;;;;;;5051419;28;20166;-86
2023/05/12 02:38:13;;;;;;;3.20;2.90;;;11.10;99.90;;;;;;5051591;28;20547;-87
2023/05/12 02:40:39;;;;;;;3.93;3.00;;;11.10;99.90;;;;;;5050786;28;20672;-86
2023/05/12 02:43:05;;;;;;;2.83;2.63;;;11.10;99.90;;;;;;5050227;28;20175;-87
2023/05/12 02:45:31;;;;;;;3.83;2.80;;;11.10;99.90;;;;;;5050489;28;20177;-86
2023/05/12 02:47:57;;;;;;;4.83;3.07;;;11.10;99.90;;;;;;5052274;28;20165;-86
2023/05/12 02:50:22;;;;;;;3.40;3.10;;;11.00;99.90;;;;;;5053019;28;20205;-86
2023/05/12 02:52:48;;;;;;;4.33;3.20;;;11.00;99.90;;;;;;5053893;28;20173;-86
2023/05/12 02:55:14;;;;;;;3.53;3.00;;;11.00;99.90;;;;;;5055186;28;20221;-86
2023/05/12 02:57:40;;;;;;;3.53;3.10;;;11.00;99.90;;;;;;5055003;28;20181;-86
2023/05/12 03:00:06;;;;;;;5.87;3.27;;;11.00;99.90;;;;;;5053072;28;20193;-86
2023/05/12 03:02:37;;;;;;;4.97;3.07;;;10.90;99.90;;;;;;5053657;28;20663;-86
2023/05/12 03:05:03;;;;;;;3.63;2.97;;;10.90;99.90;;;;;;5055138;28;20252;-86
2023/05/12 03:07:29;;;;;;;3.47;3.17;;;10.90;99.90;;;;;;5053627;28;20247;-87
2023/05/12 03:09:54;;;;;;;3.83;3.17;;;11.00;99.90;;;;;;5052983;28;20201;-86
2023/05/12 03:12:20;;;;;;;3.40;3.10;;;11.00;99.90;;;;;;5053218;28;20177;-86
2023/05/12 03:14:46;;;;;;;3.30;3.00;;;11.00;99.90;;;;;;5053576;28;20555;-86
2023/05/12 03:17:12;;;;;;;4.43;3.17;;;11.00;99.90;;;;;;5054937;28;20174;-86
2023/05/12 03:19:37;;;;;;;15.60;3.40;;;11.00;99.90;;;;;;5053090;28;20200;-86
2023/05/12 03:22:03;;;;;;;3.97;2.90;;;11.00;99.90;;;;;;5054530;28;20260;-86
2023/05/12 03:24:29;;;;;;;3.40;3.10;;;11.00;99.90;;;;;;5054598;28;20180;-86
2023/05/12 03:26:55;;;;;;;3.40;2.97;;;11.00;99.90;;;;;;5053147;28;20176;-86
2023/05/12 03:29:21;;;;;;;3.97;2.90;;;11.10;99.90;;;;;;5053273;28;20169;-86
2023/05/12 03:31:47;;;;;;;5.00;3.10;;;11.00;99.90;;;;;;5052620;28;20178;-86
2023/05/12 03:34:12;;;;;;;3.83;3.00;;;11.00;99.90;;;;;;5053133;28;20208;-86
2023/05/12 03:36:38;;;;;;;3.23;2.93;;;11.00;99.90;;;;;;5054361;28;20181;-86
2023/05/12 03:39:03;;;;;;;4.13;3.20;;;11.00;99.90;;;;;;5053072;28;20577;-86
2023/05/12 03:41:29;;;;;;;4.13;3.00;;;11.00;99.90;;;;;;5052358;28;20189;-86
2023/05/12 03:43:55;;;;;;;3.80;3.10;;;10.90;99.90;;;;;;5053198;28;20454;-86
2023/05/12 03:46:21;;;;;;;4.33;3.30;;;11.00;99.90;;;;;;5054311;28;20184;-86
2023/05/12 03:48:47;;;;;;;3.80;3.37;;;11.00;99.90;;;;;;5054251;28;20229;-86
2023/05/12 03:51:12;;;;;;;3.60;3.30;;;11.00;99.90;;;;;;5052244;28;20213;-86
2023/05/12 03:53:44;;;;;;;4.27;3.57;;;11.00;99.90;;;;;;5054234;28;20623;-84
2023/05/12 03:56:10;;;;;;;6.87;3.40;;;11.10;99.90;;;;;;5052750;28;20173;-86
2023/05/12 03:58:35;;;;;;;3.50;3.20;;;11.00;99.90;;;;;;5054419;28;20178;-83
2023/05/12 04:01:01;;;;;;;4.43;3.67;;;11.00;99.90;;;;;;5052967;28;20198;-84
2023/05/12 04:03:28;;;;;;;3.30;3.00;;;11.10;99.90;;;;;;5054694;28;20173;-82
2023/05/12 04:05:58;;;;;;;6.03;3.47;;;11.10;99.90;;;;;;5053677;28;20177;-83
2023/05/12 04:08:24;;;;;;;4.07;3.10;;;11.00;99.90;;;;;;5054793;28;20166;-83
2023/05/12 04:10:51;;;;;;;3.40;3.10;;;11.10;99.90;;;;;;5054002;28;20254;-83
2023/05/12 04:13:16;;;;;;;4.60;3.00;;;11.10;99.90;;;;;;5054658;28;20632;-83
2023/05/12 04:15:42;;;;;;;3.80;3.40;;;11.00;99.90;;;;;;5054599;28;20364;-83
2023/05/12 04:18:08;;;;;;;4.50;3.40;;;11.10;99.90;;;;;;5052718;28;20235;-83
2023/05/12 04:20:34;;;;;;;3.97;3.30;;;11.10;99.90;;;;;;5053506;28;20565;-83
2023/05/12 04:22:59;;;;;;;3.90;3.60;;;11.10;99.90;;;;;;5053821;28;20162;-82
2023/05/12 04:25:25;;;;;;;3.80;3.23;;;11.10;99.90;;;;;;5052616;28;20178;-84
2023/05/12 04:27:51;;;;;;;4.93;3.60;;;11.10;99.90;;;;;;5054043;28;20606;-83
2023/05/12 04:30:16;;;;;;;3.50;3.20;;;11.10;99.90;;;;;;5052450;28;20194;-82
2023/05/12 04:32:42;;;;;;;4.60;3.50;;;11.20;99.90;;;;;;5052875;28;20311;-83
2023/05/12 04:35:08;;;;;;;4.33;3.30;;;11.10;99.90;;;;;;5053923;28;20216;-83
2023/05/12 04:37:33;;;;;;;3.77;3.20;;;11.20;99.90;;;;;;5053835;28;20208;-84
2023/05/12 04:40:00;;;;;;;4.80;3.30;;;11.20;99.90;;;;;;5052310;28;20215;-84
2023/05/12 04:42:25;;;;;;;3.60;3.30;;;11.20;99.90;;;;;;5052171;28;20189;-83
2023/05/12 04:44:51;;;;;;;4.20;3.33;;;11.20;99.90;;;;;;5053378;28;20170;-84
2023/05/12 04:47:16;;;;;;;4.63;4.00;;;11.20;99.90;;;;;;5053474;28;20227;-83
2023/05/12 04:49:42;;;;;;;4.20;3.80;;;11.30;99.90;;;;;;5053205;28;20350;-83
2023/05/12 04:52:07;;;;;;;5.30;3.40;;;11.30;99.90;;;;;;5052441;28;20189;-84
2023/05/12 04:54:33;;;;;;;4.67;3.50;;;11.30;99.90;;;;;;5052148;28;20197;-84
2023/05/12 04:56:59;;;;;;;3.90;3.60;;;11.40;99.90;;;;;;5052944;28;20267;-83
2023/05/12 04:59:24;;;;;;;4.57;3.30;;;11.40;99.90;;;;;;5052377;28;20207;-83
2023/05/12 05:01:50;;;;;;;3.47;3.10;;;11.40;99.90;;;;;;5052121;28;20174;-83
2023/05/12 05:04:16;;;;;;;3.60;3.30;;;11.50;99.90;;;;;;5052902;28;20255;-83
2023/05/12 05:06:41;;;;;;;6.13;3.83;;;11.50;99.90;;;;;;5053938;28;20173;-83
2023/05/12 05:09:07;;;;;;;4.40;3.57;;;11.60;99.90;;;;;;5052523;28;20185;-83
2023/05/12 05:11:33;;;;;;;3.33;3.03;;;11.60;99.90;;;;;;5051271;28;20200;-83
2023/05/12 05:13:58;;;;;;;4.00;3.60;;;11.60;99.90;;;;;;5052645;28;20675;-83
2023/05/12 05:16:24;;;;;;;4.27;3.87;;;11.60;99.90;;;;;;5053480;28;20616;-83
2023/05/12 05:18:50;;;;;;;4.83;3.83;;;11.60;99.90;;;;;;5052484;28;20173;-83
2023/05/12 05:21:15;;;;;;;5.30;3.57;;;11.60;99.90;;;;;;5052295;28;20235;-83
2023/05/12 05:23:41;;;;;;;3.90;3.60;;;11.60;99.90;;;;;;5051957;28;20200;-82
2023/05/12 05:26:07;;;;;;;4.70;3.90;;;11.60;99.90;;;;;;5051942;28;20188;-83
2023/05/12 05:28:34;;;;;;;4.60;3.97;;;;;;;;;;5052325;28;20174;-82
2023/05/12 05:30:59;;;;;;;4.87;4.23;;;11.80;99.90;;;;;;5050965;28;20199;-85
2023/05/12 05:33:26;;;;;;;4.73;4.23;;;11.90;99.90;;;;;;5051054;28;20216;-85
2023/05/12 05:35:52;;;;;;;4.77;4.30;;;11.90;99.90;;;;;;5051570;28;20227;-85
2023/05/12 05:38:17;;;;;;;4.60;4.20;;;11.90;99.90;;;;;;5052741;28;20182;-84
2023/05/12 05:40:43;;;;;;;5.33;4.37;;;12.00;99.90;;;;;;5051834;28;20207;-83
2023/05/12 05:43:09;;;;;;;4.50;4.10;;;12.10;99.90;;;;;;5052710;28;20215;-82
2023/05/12 05:45:34;;;;;;;4.83;4.30;;;12.20;99.90;;;;;;5052088;28;20181;-82
2023/05/12 05:48:00;;;;;;;4.83;4.43;;;12.20;99.90;;;;;;5053746;28;20173;-82
2023/05/12 05:50:26;;;;;;;7.63;4.30;;;12.30;99.90;;;;;;5052612;28;20244;-82
2023/05/12 05:52:53;;;;;;;5.00;4.50;;;12.40;99.90;;;;;;5053053;28;20199;-82
2023/05/12 05:55:20;;;;;;;4.40;4.00;;;12.50;99.90;;;;;;5053526;28;20205;-82
2023/05/12 05:57:46;;;;;;;4.67;4.20;;;12.50;99.90;;;;;;5053789;28;20263;-81
2023/05/12 06:00:13;;;;;;;4.40;4.00;;;12.60;99.90;;;;;;5054878;28;20255;-82
2023/05/12 06:02:39;;;;;;;4.30;3.90;;;12.60;99.90;;;;;;5055440;28;20556;-82
2023/05/12 06:05:05;;;;;;;4.47;4.07;;;12.80;99.90;;;;;;5054901;28;20227;-82
2023/05/12 06:07:31;;;;;;;5.10;4.60;;;12.80;99.90;;;;;;5054824;28;20201;-82
2023/05/12 06:09:57;;;;;;;4.13;3.83;;;12.90;99.90;;;;;;5054942;28;20219;-82
2023/05/12 06:12:23;;;;;;;4.93;4.17;;;13.00;99.90;;;;;;5053253;28;20180;-82
2023/05/12 06:14:48;;;;;;;4.10;3.70;;;13.00;99.90;;;;;;5053800;28;20205;-84
2023/05/12 06:17:14;;;;;;;4.43;4.10;;;13.10;99.90;;;;;;5051481;28;20209;-83
2023/05/12 06:19:39;;;;;;;4.17;3.87;;;13.10;99.90;;;;;;5050267;28;20676;-83
2023/05/12 06:22:05;;;;;;;4.33;3.93;;;13.10;99.90;;;;;;5052661;28;20169;-83
2023/05/12 06:24:31;;;;;;;4.90;4.40;;;13.00;99.90;;;;;;5056300;28;20173;-85
2023/05/12 06:26:56;;;;;;;4.20;3.80;;;13.10;99.90;;;;;;5056501;28;20235;-83
2023/05/12 06:29:22;;;;;;;4.47;4.07;;;13.10;99.90;;;;;;5054917;28;20181;-83
2023/05/12 06:31:47;;;;;;;5.57;4.10;;;13.10;99.90;;;;;;5055577;28;20200;-82
2023/05/12 06:34:13;;;;;;;4.13;3.73;;;13.10;99.90;;;;;;5055373;28;20197;-86
2023/05/12 06:36:39;;;;;;;4.70;4.13;;;13.20;99.90;;;;;;5055883;28;20192;-83
2023/05/12 06:39:04;;;;;;;4.50;4.10;;;13.20;99.90;;;;;;5056097;28;20177;-84
2023/05/12 06:41:32;;;;;;;4.33;3.93;;;13.30;99.90;;;;;;5055262;28;20169;-83
2023/05/12 06:44:00;;;;;;;4.70;4.17;;;13.30;99.90;;;;;;5055770;28;20655;-83
2023/05/12 06:46:26;;;;;;;5.67;4.13;;;13.30;99.90;;;;;;5054655;28;20174;-85
2023/05/12 06:48:51;;;;;;;5.07;4.13;;;13.30;99.90;;;;;;5054644;28;20564;-83
2023/05/12 06:51:17;;;;;;;5.53;4.10;;;13.40;99.90;;;;;;5055213;28;20213;-83
2023/05/12 06:53:42;;;;;;;4.23;3.83;;;13.40;99.90;;;;;;5053334;28;20196;-83
2023/05/12 06:56:10;;;;;;;4.73;3.90;;;13.50;99.90;;;;;;5043814;28;20185;-84
2023/05/12 06:58:35;;;;;;;4.30;3.90;;;13.40;99.90;;;;;;5048500;28;20216;-83
2023/05/12 07:01:01;;;;;;;5.17;4.30;;;13.40;99.90;;;;;;5055049;28;20193;-83
2023/05/12 07:03:31;;;;;;;5.80;4.13;;;13.50;99.90;;;;;;5054249;28;20239;-84
2023/05/12 07:05:56;;;;;;;4.40;4.00;;;13.70;99.90;;;;;;5055172;28;20173;-83
2023/05/12 07:08:22;;;;;;;6.13;4.30;;;13.80;99.90;;;;;;5055906;28;20189;-83
2023/05/12 07:10:47;;;;;;;5.87;3.97;;;13.80;99.90;;;;;;5055116;28;20197;-83
2023/05/12 07:13:13;;;;;;;4.70;4.30;;;13.90;99.90;;;;;;5054215;28;20245;-84
2023/05/12 07:15:38;;;;;;;4.23;3.83;;;14.00;99.90;;;;;;5055868;28;20180;-83
2023/05/12 07:18:04;;;;;;;4.23;3.83;;;14.10;99.90;;;;;;5055610;28;20177;-83
2023/05/12 07:20:30;;;;;;;4.70;4.30;;;14.10;99.90;;;;;;5053666;28;20247;-85
2023/05/12 07:22:56;;;;;;;4.63;4.23;;;14.30;99.90;;;;;;5055738;28;20193;-83
2023/05/12 07:25:21;;;;;;;4.20;3.83;;;14.40;99.90;;;;;;5053899;28;20177;-84
2023/05/12 07:27:48;;;;;;;4.30;3.90;;;14.50;99.90;;;;;;5056234;28;20177;-83
2023/05/12 07:30:13;;;;;;;6.00;3.63;;;14.40;97.90;;;;;;5054565;28;20208;-83
2023/05/12 07:32:39;;;;;;;4.20;3.80;;;14.40;99.90;;;;;;5055242;28;20821;-83
2023/05/12 07:35:05;;;;;;;5.30;3.60;;;14.50;99.90;;;;;;5052764;28;20209;-83
2023/05/12 07:37:31;;;;;;;3.93;3.63;;;14.50;99.90;;;;;;5053739;28;20200;-83
2023/05/12 07:39:56;;;;;;;4.23;3.93;;;14.60;1.00;;;;;;5053025;28;20232;-83
2023/05/12 07:42:23;;;;;;;3.90;3.50;;;14.60;99.90;;;;;;5053456;28;20181;-82
2023/05/12 07:44:48;;;;;;;4.33;3.70;;;14.70;1.00;;;;;;5061953;28;20235;-79
2023/05/12 07:47:14;;;;;;;4.10;3.70;;;14.90;99.90;;;;;;5061467;28;20628;-81
2023/05/12 07:49:40;;;;;;;4.03;3.60;;;15.00;33.60;;;;;;5061914;28;20205;-79
2023/05/12 07:52:05;;;;;;;4.23;3.83;;;15.10;1.00;;;;;;5062946;28;20182;-79
2023/05/12 07:54:31;;;;;;;4.63;3.67;;;15.20;1.00;;;;;;5062182;28;20198;-79
2023/05/12 07:56:57;;;;;;;3.87;3.57;;;15.20;1.00;;;;;;5063516;28;20702;-80
2023/05/12 07:59:23;;;;;;;4.43;3.90;;;15.10;1.00;;;;;;5061877;28;20174;-81
2023/05/12 08:01:48;;;;;;;4.10;3.70;;;15.10;1.00;;;;;;5060946;28;20224;-85
2023/05/12 08:04:14;;;;;;;4.20;3.80;;;15.00;1.00;;;;;;5061848;28;20181;-79
2023/05/12 08:06:39;;;;;;;3.80;3.50;;;15.00;1.00;;;;;;5062858;28;20186;-80
2023/05/12 08:09:05;;;;;;;3.87;3.40;;;14.80;1.00;;;;;;5063094;28;20192;-80
2023/05/12 08:11:31;;;;;;;4.07;3.60;;;14.80;99.90;;;;;;5062048;28;20178;-80
2023/05/12 08:13:56;;;;;;;3.73;3.43;;;14.90;1.00;;;;;;5062026;28;20205;-80
2023/05/12 08:16:22;;;;;;;4.23;3.57;;;14.80;1.00;;;;;;5062163;28;20243;-80
2023/05/12 08:18:48;;;;;;;3.80;3.40;;;14.80;1.00;;;;;;5062753;28;20169;-80
2023/05/12 08:21:13;;;;;;;4.23;3.83;;;15.00;1.00;;;;;;5061930;28;20193;-80
2023/05/12 08:23:39;;;;;;;5.10;3.70;;;15.00;1.00;;;;;;5063697;28;20169;-80
2023/05/12 08:26:05;;;;;;;4.83;3.70;;;15.10;1.00;;;;;;5060957;28;20182;-80
2023/05/12 08:28:31;;;;;;;3.90;3.50;;;15.20;1.00;;;;;;5057734;28;20197;-80
2023/05/12 08:30:57;;;;;;;4.23;3.83;;;15.20;99.90;;;;;;5060623;28;20190;-81
2023/05/12 08:33:23;;;;;;;4.40;3.97;;;15.40;1.00;;;;;;5058154;28;20185;-80
2023/05/12 08:35:49;;;;;;;4.17;3.77;;;15.60;1.00;;;;;;5062598;28;20178;-80
2023/05/12 08:38:15;;;;;;;4.37;3.93;;;15.80;1.00;;;;;;5061409;28;20605;-80
2023/05/12 08:40:56;;;;;;;5.57;3.60;;;15.70;99.90;;;;;;5060288;28;20231;-80
2023/05/12 08:43:30;;;;;;;3.93;3.63;;;15.80;1.00;;;;;;5060802;28;20174;-80
2023/05/12 08:45:58;;;;;;;4.20;3.80;;;15.60;99.90;;;;;;5061696;28;20237;-80
2023/05/12 08:48:28;;;;;;;4.20;3.80;;;15.60;1.00;;;;;;5061091;28;20178;-80
2023/05/12 08:50:55;;;;;;;5.77;3.87;;;15.50;1.00;;;;;;5060528;28;20233;-80
2023/05/12 08:53:22;;;;;;;4.00;3.70;;;15.30;1.00;;;;;;5061970;28;20177;-81
2023/05/12 08:55:49;;;;;;;4.23;3.83;;;15.20;1.00;;;;;;5060807;28;20204;-80
2023/05/12 08:58:15;;;;;;;4.10;3.70;;;15.20;1.00;;;;;;5062251;28;20181;-80
2023/05/12 09:00:41;;;;;;;6.10;3.80;;;15.20;1.00;;;;;;5060092;28;20632;-79
2023/05/12 09:03:07;;;;;;;5.57;3.80;;;15.20;1.00;;;;;;5062137;28;20177;-80
2023/05/12 09:05:35;;;;;;;4.17;3.77;;;15.30;1.00;;;;;;5061207;28;20184;-80
2023/05/12 09:08:01;;;;;;;4.23;3.50;;;15.30;1.00;;;;;;5061835;28;20178;-83
2023/05/12 09:10:27;;;;;;;7.80;6.13;;;15.30;1.00;;;;;;5064985;28;20193;-80
2023/05/12 09:13:16;;;;;;;8.17;6.43;;;15.60;99.90;;;;;;5064491;28;20177;-80
2023/05/12 09:15:46;;;;;;;5.03;3.50;;;16.00;36.70;;;;;;5063142;28;20251;-82
2023/05/12 09:18:11;;;;;;;3.77;3.43;;;16.00;1.00;;;;;;5061267;28;20170;-80
2023/05/12 09:20:37;;;;;;;3.40;2.97;;;16.00;1.00;;;;;;5062161;28;20208;-79
2023/05/12 09:23:14;;;;;;;3.33;3.03;;;15.90;1.00;;;;;;5061788;28;20184;-80
2023/05/12 09:25:39;;;;;;;4.20;3.00;;;15.90;99.90;;;;;;5061428;28;20557;-79
2023/05/12 09:28:05;;;;;;;5.17;3.97;;;16.10;99.90;;;;;;5062584;28;20173;-79
2023/05/12 09:30:34;;;;;;;3.33;3.03;;;16.30;99.90;;;;;;5061185;28;20193;-80
2023/05/12 09:33:10;;;;;;;3.17;2.90;;;16.40;99.90;;;;;;5061948;28;20176;-80
2023/05/12 09:35:43;;;;;;;3.33;3.03;;;16.40;99.90;;;;;;5058388;28;20613;-80
2023/05/12 09:38:10;;;;;;;4.37;3.07;;;16.60;99.90;;;;;;5055582;28;20181;-80
2023/05/12 09:40:36;;;;;;;3.20;2.90;;;17.00;1.00;;;;;;5054414;28;20193;-80
2023/05/12 09:43:06;;;;;;;5.87;3.67;;;17.10;1.00;;;;;;5056212;28;20636;-82
2023/05/12 09:45:35;;;;;;;3.50;3.00;;;17.10;99.90;;;;;;5054246;28;20181;-79
2023/05/12 09:48:12;;;;;;;3.33;3.03;;;17.10;99.90;;;;;;5052374;28;20166;-80
2023/05/12 09:50:43;;;;;;;3.33;2.90;;;16.90;1.00;;;;;;5044895;28;20248;-81
2023/05/12 09:53:09;;;;;;;6.23;3.10;;;16.80;1.00;;;;;;5052582;28;20185;-82
2023/05/12 09:55:35;;;;;;;5.37;2.90;;;16.50;99.90;;;;;;5068975;28;20224;-80
2023/05/12 09:58:08;;;;;;;4.00;3.20;;;16.50;99.90;;;;;;5056412;28;20223;-80
2023/05/12 10:00:38;;;;;;;3.63;3.10;;;16.70;99.90;;;;;;5056784;28;20194;-80
2023/05/12 10:03:10;;;;;;;3.53;3.20;;;16.60;1.00;;;;;;5058137;28;20630;-79
2023/05/12 10:05:48;;;;;;;3.40;3.03;;;16.70;99.90;;;;;;5058213;28;20181;-80
2023/05/12 10:08:28;;;;;;;3.70;3.17;;;16.80;1.00;;;;;;5056834;28;20205;-80
2023/05/12 10:10:55;;;;;;;5.57;3.37;;;16.90;99.90;;;;;;5050519;28;20280;-83
2023/05/12 10:13:22;;;;;;;3.53;3.00;;;17.00;1.00;;;;;;5051845;28;20296;-83
2023/05/12 10:15:50;;;;;;;4.87;3.30;;;17.10;99.90;;;;;;5050864;28;20201;-84
2023/05/12 10:18:17;;;;;;;3.97;3.03;;;17.30;99.90;;;;;;5051188;28;20176;-84
2023/05/12 10:20:44;;;;;;;3.70;3.03;;;17.50;99.90;;;;;;5049948;28;20200;-84
2023/05/12 10:23:12;;;;;;;3.93;3.07;;;17.90;1.00;;;;;;5051977;28;20169;-84
2023/05/12 10:25:41;;;;;;;4.07;3.33;;;18.10;1.00;;;;;;5052014;28;20548;-83
2023/05/12 10:28:07;;;;;;;5.87;3.40;;;18.40;1.00;;;;;;5050715;28;20174;-83
2023/05/12 10:30:34;;;;;;;3.93;3.13;;;18.70;99.90;;;;;;5050823;28;20193;-81
2023/05/12 10:33:01;;;;;;;3.57;2.73;;;19.00;1.00;;;;;;5052458;28;20178;-82
2023/05/12 10:35:35;;;;;;;4.10;2.90;;;19.00;1.00;;;;;;5053056;28;20213;-82
2023/05/12 10:38:11;;;;;;;2.80;2.60;;;18.90;99.90;;;;;;5054162;28;20181;-82
2023/05/12 10:40:52;;;;;;;3.00;2.70;;;18.90;1.00;;;;;;5052199;28;20659;-82
2023/05/12 10:43:23;;;;;;;4.10;2.77;;;19.30;1.00;;;;;;5052385;28;20208;-82
2023/05/12 10:46:11;;;;;;;3.30;3.00;;;19.40;1.00;;;;;;5053708;28;20177;-82
2023/05/12 10:48:50;;;;;;;2.70;2.50;;;19.60;1.00;;;;;;5053507;28;20177;-82
2023/05/12 10:51:20;;;;;;;3.00;2.70;;;19.40;1.00;;;;;;5052424;28;20219;-82
2023/05/12 10:53:50;;;;;;;2.70;2.50;;;19.30;99.90;;;;;;5052012;28;20573;-82
2023/05/12 10:56:22;;;;;;;3.53;2.97;;;19.30;99.90;;;;;;5053223;28;20169;-82
2023/05/12 10:59:23;;;;;;;2.80;2.50;;;19.30;1.00;;;;;;5051955;28;20170;-82
2023/05/12 11:02:04;;;;;;;2.70;2.50;;;19.80;99.90;;;;;;5052609;28;20172;-82
2023/05/12 11:04:52;;;;;;;2.80;2.50;;;20.50;1.00;;;;;;5051528;28;20177;-81
2023/05/12 11:07:23;;;;;;;3.75;2.63;;;20.70;99.90;;;;;;5051489;28;20178;-82
2023/05/12 11:09:49;;;;;;;3.60;2.60;;;20.60;99.90;;;;;;5054246;28;20197;-82
2023/05/12 11:12:15;;;;;;;2.72;2.47;;;20.60;1.00;;;;;;5056651;28;20235;-82
2023/05/12 11:14:43;;;;;;;2.50;2.30;;;20.80;99.90;;;;;;5056295;28;20209;-83
2023/05/12 11:17:09;;;;;;;2.67;2.40;;;20.90;15.80;;;;;;5056785;28;20204;-82
2023/05/12 11:19:35;;;;;;;3.78;2.75;;;20.90;1.00;;;;;;5055804;28;20201;-81
2023/05/12 11:22:08;;;;;;;2.35;2.15;;;21.30;1.00;;;;;;5054667;28;20166;-81
2023/05/12 11:24:35;;;;;;;3.22;2.58;;;21.60;99.90;;;;;;5054849;28;20219;-82
2023/05/12 11:27:03;;;;;;;3.17;2.40;;;22.00;1.00;;;;;;5056452;28;20182;-82
2023/05/12 11:29:29;;;;;;;3.85;2.38;;;21.60;99.90;;;;;;5056180;28;20190;-82
2023/05/12 11:31:55;;;;;;;2.97;2.50;;;21.30;1.00;;;;;;5055874;28;20200;-82
2023/05/12 11:34:22;;;;;;;2.75;2.53;;;21.40;99.90;;;;;;5054630;28;20233;-82
2023/05/12 11:36:49;;;;;;;2.72;2.38;;;20.90;99.90;;;;;;5055809;28;20166;-82
2023/05/12 11:39:17;;;;;;;2.60;2.30;;;21.10;1.00;;;;;;5056141;28;20192;-82
2023/05/12 11:41:43;;;;;;;3.90;2.38;;;21.00;99.90;;;;;;5054136;28;20612;-82
2023/05/12 11:44:24;;;;;;;4.30;2.50;;;20.70;1.00;;;;;;5054513;28;20264;-82
2023/05/12 11:47:13;;;;;;;5.43;2.60;;;20.40;99.90;;;;;;5055171;28;20178;-82
2023/05/12 11:49:48;;;;;;;3.40;2.70;;;20.70;1.00;;;;;;5101911;22;20244;-81
2023/05/12 11:52:14;;;;;;;2.70;2.50;;;20.80;99.90;;;;;;5035294;28;20178;-81
2023/05/12 11:54:57;;;;;;;2.40;2.10;;;21.00;1.00;;;;;;5036271;28;20206;-81
2023/05/12 11:57:26;;;;;;;3.20;2.30;;;21.80;99.90;;;;;;5034535;28;20654;-81
2023/05/12 12:00:03;;;;;;;2.42;2.22;;;21.80;99.90;;;;;;5034732;28;20244;-81
2023/05/12 12:02:29;;;;;;;2.35;2.15;;;21.80;99.90;;;;;;5040567;28;20170;-81
2023/05/12 12:04:55;;;;;;;2.50;2.30;;;21.70;99.90;;;;;;5039894;28;20236;-83
2023/05/12 12:07:35;;;;;;;3.05;2.55;;;21.40;99.90;;;;;;5040348;28;20198;-80
2023/05/12 12:10:14;;;;;;;4.55;2.78;;;21.20;99.90;;;;;;5041607;28;20190;-80
2023/05/12 12:12:41;;;;;;;2.90;2.30;;;21.10;99.90;;;;;;5039711;28;20725;-81
2023/05/12 12:15:07;;;;;;;4.28;2.60;;;20.70;99.90;;;;;;5041456;28;20213;-81
2023/05/12 12:17:33;;;;;;;4.15;2.45;;;20.10;99.90;;;;;;5040398;28;20174;-80
2023/05/12 12:19:58;;;;;;;3.50;2.53;;;20.00;99.90;;;;;;5038002;28;20195;-80
2023/05/12 12:22:24;;;;;;;3.10;2.25;;;20.00;99.90;;;;;;5036982;28;20193;-79
2023/05/12 12:24:49;;;;;;;3.78;2.22;;;20.10;1.00;;;;;;5037340;28;20174;-81
2023/05/12 12:27:15;;;;;;;2.38;2.17;;;20.20;1.00;;;;;;5036393;28;20700;-79
2023/05/12 12:29:40;;;;;;;2.70;2.50;;;20.20;99.90;;;;;;5037375;28;20668;-79
2023/05/12 12:32:07;;;;;;;2.88;2.45;;;20.10;1.00;;;;;;5040361;28;20173;-79
2023/05/12 12:34:33;;;;;;;4.10;2.55;;;20.00;99.90;;;;;;5038447;28;20198;-79
2023/05/12 12:36:59;;;;;;;4.20;2.20;;;20.00;1.00;;;;;;5062194;28;20192;-80
2023/05/12 12:39:24;;;;;;;2.80;2.45;;;19.90;1.00;;;;;;5050192;28;20213;-83
2023/05/12 12:41:50;;;;;;;2.35;2.15;;;19.90;99.90;;;;;;5051121;28;20550;-81
2023/05/12 12:44:16;;;;;;;2.92;2.30;;;19.90;1.00;;;;;;5039518;28;20167;-79
2023/05/12 12:46:42;;;;;;;3.65;2.55;;;19.60;1.00;;;;;;5038663;28;20174;-81
2023/05/12 12:49:08;;;;;;;4.63;2.60;;;19.40;1.00;;;;;;5037928;28;20236;-79
2023/05/12 12:51:34;;;;;;;3.00;2.53;;;19.20;1.00;;;;;;5040671;28;20292;-80